JM-0002 weather

Manchioneal Airstrip
Portland, Jamaica

Public forecast

Using degrees Celsius for public forecast. Weather courtesy of forecast.io.

Closest aviation weather report (METAR) to Manchioneal Airstrip

Closest report is Norman Manley International Airport, 29.7 nm (55.0 km) WSW. Retrieved 2019/10/24 04:00 UTC (22 minutes ago):

MKJP 240400Z 35006KT 9999 FEW020 27/22 Q1013

Closest aviation forecast (TAF) to Manchioneal Airstrip

Closest forecast is Norman Manley International Airport, 29.7 nm (55.0 km) WSW. Retrieved 2019-10-24 00:25 UTC (4 hours ago):

TAF MKJP 232315Z 2400/2424 36008KT 9999 FEW018 FEW020CB PROB30 TEMPO 2401/2404 3000 TSRA BKN016 BKN018CB BECMG 2414/2416 14017KT TEMPO 2417/2423 2000 TSRA BKN018 BKN020CB